createdAt,value
2019-01-16T00:00:19.230Z,6.04
2019-01-16T00:03:05.041Z,6.10
2019-01-16T00:05:58.842Z,6.21
2019-01-16T00:08:40.985Z,6.27
2019-01-16T00:11:36.321Z,6.31
2019-01-16T00:14:28.657Z,6.33
2019-01-16T00:17:17.273Z,6.36
2019-01-16T00:20:19.826Z,6.43
2019-01-16T00:23:11.929Z,6.50
2019-01-16T00:26:20.496Z,6.55
2019-01-16T00:29:11.649Z,6.51
2019-01-16T00:32:00.637Z,6.51
2019-01-16T00:34:50.079Z,6.43
2019-01-16T00:37:46.878Z,6.38
2019-01-16T00:40:40.372Z,6.39
2019-01-16T00:43:29.882Z,6.20
2019-01-16T00:46:19.242Z,6.19
2019-01-16T00:49:13.157Z,6.22
2019-01-16T00:52:03.618Z,6.11
2019-01-16T00:54:54.371Z,6.15
2019-01-16T00:58:03.188Z,6.14
2019-01-16T01:00:59.457Z,6.20
2019-01-16T01:03:44.322Z,6.26
2019-01-16T01:06:26.821Z,6.33
2019-01-16T01:09:10.434Z,6.35
2019-01-16T01:11:58.562Z,6.41
2019-01-16T01:14:51.835Z,6.39
2019-01-16T01:17:36.126Z,6.38
2019-01-16T01:20:35.169Z,6.39
2019-01-16T01:23:24.527Z,6.44
2019-01-16T01:26:06.970Z,6.51
2019-01-16T01:28:57.525Z,6.57
2019-01-16T01:31:51.119Z,6.57
2019-01-16T01:34:37.023Z,6.59
2019-01-16T01:37:36.919Z,6.56
2019-01-16T01:40:27.835Z,6.59
2019-01-16T01:43:36.710Z,6.67
2019-01-16T01:46:25.761Z,6.63
2019-01-16T01:49:05.948Z,6.64
2019-01-16T01:51:55.162Z,6.66
2019-01-16T01:54:57.718Z,6.67
2019-01-16T01:57:51.483Z,6.69
2019-01-16T02:00:49.601Z,6.71
2019-01-16T02:03:52.452Z,6.66
2019-01-16T02:06:40.650Z,6.70
2019-01-16T02:09:23.921Z,6.64
2019-01-16T02:12:17.424Z,6.61
2019-01-16T02:15:02.031Z,6.58
2019-01-16T02:17:58.664Z,6.50
2019-01-16T02:20:46.803Z,6.46
2019-01-16T02:23:36.252Z,6.43
2019-01-16T02:26:27.007Z,6.37
2019-01-16T02:29:17.739Z,6.27
2019-01-16T02:32:11.015Z,6.30
2019-01-16T02:35:07.644Z,6.31
2019-01-16T02:37:58.135Z,6.32
2019-01-16T02:40:48.589Z,6.31
2019-01-16T02:43:48.190Z,6.33
2019-01-16T02:46:39.742Z,6.30
2019-01-16T02:49:30.331Z,6.32
2019-01-16T02:52:30.077Z,6.34
2019-01-16T02:55:18.890Z,6.39
2019-01-16T02:58:08.110Z,6.50
2019-01-16T03:01:10.611Z,6.39
2019-01-16T03:04:00.071Z,6.29
2019-01-16T03:06:50.825Z,6.21
2019-01-16T03:09:41.288Z,6.24
2019-01-16T03:12:30.766Z,6.22
2019-01-16T03:15:21.548Z,6.23
2019-01-16T03:18:12.031Z,6.17
2019-01-16T03:21:13.692Z,6.19
2019-01-16T03:24:07.236Z,6.21
2019-01-16T03:26:53.229Z,6.25
2019-01-16T03:29:49.583Z,6.33
2019-01-16T03:32:40.101Z,6.41
2019-01-16T03:35:24.604Z,6.45
2019-01-16T03:38:14.827Z,6.47
2019-01-16T03:40:59.761Z,6.52
2019-01-16T03:44:00.166Z,6.56
2019-01-16T03:46:53.524Z,6.60
2019-01-16T03:49:53.301Z,6.64
2019-01-16T03:52:46.531Z,6.68
2019-01-16T03:55:34.123Z,6.68
2019-01-16T03:58:21.700Z,6.66
2019-01-16T04:01:11.227Z,6.68
2019-01-16T04:04:20.288Z,6.71
2019-01-16T04:07:10.776Z,6.74
2019-01-16T04:10:10.338Z,6.74
2019-01-16T04:13:00.870Z,6.72
2019-01-16T04:16:03.344Z,6.67
2019-01-16T04:19:09.300Z,6.66
2019-01-16T04:22:05.522Z,6.64
2019-01-16T04:24:43.400Z,6.61
2019-01-16T04:27:26.696Z,6.57
2019-01-16T04:30:18.693Z,6.53
2019-01-16T04:33:01.545Z,6.43
2019-01-16T04:35:58.120Z,6.33
2019-01-16T04:38:48.586Z,6.22
2019-01-16T04:41:51.455Z,6.09
2019-01-16T04:44:40.801Z,5.93
2019-01-16T04:47:37.946Z,5.91
2019-01-16T04:50:20.103Z,5.86
2019-01-16T04:53:19.924Z,5.84
2019-01-16T04:56:16.750Z,5.64
2019-01-16T04:59:03.437Z,5.65
2019-01-16T05:02:06.060Z,5.56
2019-01-16T05:04:57.909Z,5.50
2019-01-16T05:07:55.167Z,5.53
2019-01-16T05:10:45.898Z,5.48
2019-01-16T05:13:39.225Z,5.46
2019-01-16T05:16:22.540Z,5.51
2019-01-16T05:19:25.051Z,5.55
2019-01-16T05:22:18.650Z,5.59
2019-01-16T05:25:08.386Z,5.67
2019-01-16T05:27:59.115Z,5.69
2019-01-16T05:30:55.382Z,5.65
2019-01-16T05:33:39.961Z,5.62
2019-01-16T05:36:33.722Z,5.59
2019-01-16T05:39:24.909Z,5.57
2019-01-16T05:42:15.397Z,5.57
2019-01-16T05:45:09.123Z,5.57
2019-01-16T05:47:58.777Z,5.60
2019-01-16T05:50:40.257Z,5.64
2019-01-16T05:53:34.022Z,5.67
2019-01-16T05:56:26.583Z,5.68
2019-01-16T05:59:26.186Z,5.72
2019-01-16T06:02:29.086Z,5.79
2019-01-16T06:05:11.608Z,5.74
2019-01-16T06:08:17.429Z,5.68
2019-01-16T06:11:14.911Z,5.71
2019-01-16T06:14:14.491Z,5.70
2019-01-16T06:17:11.554Z,5.70
2019-01-16T06:20:12.749Z,5.67
2019-01-16T06:23:11.970Z,5.67
2019-01-16T06:26:17.812Z,5.63
2019-01-16T06:29:07.222Z,5.57
2019-01-16T06:32:04.103Z,5.55
2019-01-16T06:34:43.946Z,5.52
2019-01-16T06:37:50.132Z,5.58
2019-01-16T06:40:50.994Z,5.59
2019-01-16T06:43:46.679Z,5.56
2019-01-16T06:46:55.573Z,5.54
2019-01-16T06:49:46.346Z,5.50
2019-01-16T06:52:34.943Z,5.55
2019-01-16T06:55:44.599Z,5.55
2019-01-16T06:58:37.127Z,5.48
2019-01-16T07:01:36.727Z,5.42
2019-01-16T07:04:27.502Z,5.45
2019-01-16T07:07:16.855Z,5.47
2019-01-16T07:10:06.032Z,5.45
2019-01-16T07:13:08.848Z,5.38
2019-01-16T07:16:08.772Z,5.30
2019-01-16T07:18:53.526Z,5.26
2019-01-16T07:21:52.429Z,5.24
2019-01-16T07:24:57.899Z,5.12
2019-01-16T07:27:50.287Z,5.12
2019-01-16T07:30:59.070Z,5.12
2019-01-16T07:33:42.097Z,5.14
2019-01-16T07:36:31.485Z,5.18
2019-01-16T07:39:22.821Z,5.14
2019-01-16T07:42:12.977Z,5.16
2019-01-16T07:45:04.394Z,5.27
2019-01-16T07:48:01.237Z,5.32
2019-01-16T07:50:58.296Z,5.39
2019-01-16T07:53:39.621Z,5.43
2019-01-16T07:56:37.564Z,5.48
2019-01-16T07:59:27.591Z,5.52
2019-01-16T08:02:17.387Z,5.55
2019-01-16T08:05:07.131Z,5.56
2019-01-16T08:08:12.848Z,5.58
2019-01-16T08:11:00.321Z,5.61
2019-01-16T08:14:00.527Z,5.62
2019-01-16T08:17:06.861Z,5.59
2019-01-16T08:19:56.104Z,5.61
2019-01-16T08:22:45.623Z,5.67
2019-01-16T08:25:36.088Z,5.66
2019-01-16T08:28:26.781Z,5.66
2019-01-16T08:31:07.136Z,5.83
2019-01-16T08:34:14.264Z,6.02
2019-01-16T08:37:03.386Z,6.20
2019-01-16T08:39:53.130Z,6.35
2019-01-16T08:42:42.494Z,6.49
2019-01-16T08:45:39.861Z,6.64
2019-01-16T08:48:24.589Z,6.80
2019-01-16T08:51:38.292Z,6.94
2019-01-16T08:54:27.805Z,7.00
2019-01-16T08:57:12.239Z,7.09
2019-01-16T09:00:06.050Z,7.22
2019-01-16T09:03:06.518Z,7.33
2019-01-16T09:06:00.220Z,7.46
2019-01-16T09:08:49.225Z,7.53
2019-01-16T09:11:39.774Z,7.42
2019-01-16T09:14:30.216Z,7.35
2019-01-16T09:17:49.254Z,7.24
2019-01-16T09:20:40.108Z,7.21
2019-01-16T09:23:25.713Z,7.26
2019-01-16T09:26:10.447Z,7.39
2019-01-16T09:29:00.894Z,7.40
2019-01-16T09:31:50.960Z,7.30
2019-01-16T09:34:33.887Z,7.26
2019-01-16T09:37:36.483Z,7.31
2019-01-16T09:40:33.363Z,7.23
2019-01-16T09:43:22.615Z,7.28
2019-01-16T09:46:12.291Z,7.22
2019-01-16T09:49:13.732Z,7.19
2019-01-16T09:52:10.256Z,7.23
2019-01-16T09:55:18.324Z,7.32
2019-01-16T09:58:07.586Z,7.21
2019-01-16T10:01:16.530Z,7.16
2019-01-16T10:04:05.694Z,7.19
2019-01-16T10:07:08.288Z,7.18
2019-01-16T10:10:02.169Z,7.18
2019-01-16T10:12:52.310Z,7.27
2019-01-16T10:15:39.456Z,7.42
2019-01-16T10:18:42.222Z,7.50
2019-01-16T10:21:29.862Z,7.69
2019-01-16T10:24:19.239Z,7.75
2019-01-16T10:27:15.796Z,7.90
2019-01-16T10:30:06.268Z,7.85
2019-01-16T10:33:15.578Z,7.83
2019-01-16T10:35:55.803Z,7.93
2019-01-16T10:39:01.375Z,7.96
2019-01-16T10:41:57.726Z,8.03
2019-01-16T10:45:00.535Z,8.15
2019-01-16T10:48:01.064Z,8.14
2019-01-16T10:51:03.336Z,8.07
2019-01-16T10:53:41.375Z,8.24
2019-01-16T10:56:29.620Z,8.18
2019-01-16T10:59:23.102Z,8.16
2019-01-16T11:02:13.762Z,8.14
2019-01-16T11:05:04.167Z,8.19
2019-01-16T11:08:03.869Z,8.13
2019-01-16T11:10:54.311Z,8.12
2019-01-16T11:13:44.487Z,8.19
2019-01-16T11:16:34.107Z,8.21
2019-01-16T11:19:23.753Z,8.34
2019-01-16T11:22:14.059Z,8.40
2019-01-16T11:25:10.493Z,8.45
2019-01-16T11:28:08.294Z,8.63
2019-01-16T11:30:53.393Z,8.61
2019-01-16T11:33:46.905Z,8.68
2019-01-16T11:36:36.434Z,8.73
2019-01-16T11:39:36.493Z,8.79
2019-01-16T11:42:25.850Z,8.62
2019-01-16T11:45:15.230Z,8.58
2019-01-16T11:48:11.252Z,8.60
2019-01-16T11:51:00.324Z,8.59
2019-01-16T11:53:49.412Z,8.71
2019-01-16T11:56:53.575Z,8.76
2019-01-16T11:59:43.997Z,8.75
2019-01-16T12:02:30.335Z,8.85
2019-01-16T12:05:29.096Z,8.87
2019-01-16T12:08:18.182Z,8.95
2019-01-16T12:11:09.579Z,9.01
2019-01-16T12:14:04.248Z,8.93
2019-01-16T12:17:01.952Z,8.91
2019-01-16T12:19:52.665Z,8.84
2019-01-16T12:22:41.941Z,8.91
2019-01-16T12:25:41.687Z,8.82
2019-01-16T12:28:32.113Z,8.81
2019-01-16T12:31:15.879Z,8.90
2019-01-16T12:34:08.399Z,8.92
2019-01-16T12:37:14.155Z,8.74
2019-01-16T12:40:02.941Z,8.80
2019-01-16T12:42:57.445Z,8.83
2019-01-16T12:45:40.396Z,8.92
2019-01-16T12:48:32.007Z,9.01
2019-01-16T12:51:22.441Z,8.88
2019-01-16T12:54:08.597Z,8.82
2019-01-16T12:57:08.021Z,8.81
2019-01-16T13:00:10.524Z,8.76
2019-01-16T13:02:48.664Z,8.75
2019-01-16T13:05:39.159Z,8.68
2019-01-16T13:08:38.741Z,8.71
2019-01-16T13:11:39.902Z,8.65
2019-01-16T13:14:22.964Z,8.71
2019-01-16T13:17:16.415Z,8.80
2019-01-16T13:20:07.133Z,8.86
2019-01-16T13:22:53.399Z,8.88
2019-01-16T13:25:53.228Z,8.94
2019-01-16T13:28:48.914Z,8.96
2019-01-16T13:31:48.565Z,8.91
2019-01-16T13:34:45.258Z,8.93
2019-01-16T13:37:34.402Z,9.04
2019-01-16T13:40:28.392Z,9.11
2019-01-16T13:43:21.838Z,9.15
2019-01-16T13:46:13.839Z,9.18
2019-01-16T13:49:07.103Z,9.19
2019-01-16T13:52:18.884Z,9.16
2019-01-16T13:55:08.327Z,9.16
2019-01-16T13:58:02.743Z,9.14
2019-01-16T14:00:56.887Z,9.11
2019-01-16T14:03:53.223Z,9.11
2019-01-16T14:06:52.211Z,9.13
2019-01-16T14:09:48.863Z,9.09
2019-01-16T14:12:39.326Z,9.05
2019-01-16T14:15:40.606Z,9.03
2019-01-16T14:18:22.908Z,8.99
2019-01-16T14:21:12.310Z,8.98
2019-01-16T14:24:01.465Z,8.97
2019-01-16T14:26:57.886Z,8.90
2019-01-16T14:29:48.336Z,8.86
2019-01-16T14:32:37.897Z,8.83
2019-01-16T14:35:37.628Z,8.81
2019-01-16T14:38:30.846Z,8.80
2019-01-16T14:41:30.381Z,8.79
2019-01-16T14:44:31.545Z,8.79
2019-01-16T14:47:40.034Z,8.70
2019-01-16T14:50:29.438Z,8.64
2019-01-16T14:53:12.078Z,8.64
2019-01-16T14:55:56.307Z,8.64
2019-01-16T14:58:38.825Z,8.60
2019-01-16T15:01:27.889Z,8.56
2019-01-16T15:04:15.816Z,8.54
2019-01-16T15:06:57.999Z,8.53
2019-01-16T15:09:47.283Z,8.50
2019-01-16T15:12:36.445Z,8.46
2019-01-16T15:15:30.345Z,8.43
2019-01-16T15:18:19.483Z,8.43
2019-01-16T15:21:08.579Z,8.38
2019-01-16T15:23:54.418Z,8.34
2019-01-16T15:26:40.860Z,8.31
2019-01-16T15:29:34.350Z,8.26
2019-01-16T15:32:16.697Z,8.22
2019-01-16T15:35:01.675Z,8.17
2019-01-16T15:37:46.285Z,8.12
2019-01-16T15:40:34.603Z,8.06
2019-01-16T15:43:40.540Z,7.98
2019-01-16T15:46:35.013Z,7.91
2019-01-16T15:49:28.223Z,7.84
2019-01-16T15:52:16.320Z,7.78
2019-01-16T15:55:16.041Z,7.70
2019-01-16T15:57:57.270Z,7.66
2019-01-16T16:00:47.710Z,7.64
2019-01-16T16:03:35.866Z,7.59
2019-01-16T16:06:33.493Z,7.46
2019-01-16T16:09:45.411Z,7.37
2019-01-16T16:12:34.686Z,7.29
2019-01-16T16:15:15.851Z,6.97
2019-01-16T16:18:18.515Z,6.81
2019-01-16T16:21:16.480Z,6.60
2019-01-16T16:24:06.899Z,6.59
2019-01-16T16:26:56.291Z,6.54
2019-01-16T16:29:56.266Z,6.52
2019-01-16T16:32:56.882Z,6.48
2019-01-16T16:35:56.306Z,6.42
2019-01-16T16:38:54.569Z,6.46
2019-01-16T16:41:43.519Z,6.49
2019-01-16T16:44:26.731Z,6.46
2019-01-16T16:47:20.177Z,6.48
2019-01-16T16:50:16.582Z,6.49
2019-01-16T16:53:03.441Z,6.56
2019-01-16T16:55:46.190Z,6.55
2019-01-16T16:58:54.763Z,6.50
2019-01-16T17:01:42.061Z,6.43
2019-01-16T17:04:45.384Z,6.39
2019-01-16T17:07:48.202Z,6.36
2019-01-16T17:10:40.422Z,6.33
2019-01-16T17:13:30.886Z,6.19
2019-01-16T17:16:21.347Z,6.08
2019-01-16T17:19:17.863Z,6.03
2019-01-16T17:22:05.858Z,5.95
2019-01-16T17:24:55.164Z,5.92
2019-01-16T17:27:57.790Z,5.88
2019-01-16T17:30:47.267Z,5.81
2019-01-16T17:33:56.624Z,5.73
2019-01-16T17:36:47.476Z,5.71
2019-01-16T17:39:36.877Z,5.61
2019-01-16T17:42:35.607Z,5.56
2019-01-16T17:45:27.229Z,5.55
2019-01-16T17:48:21.169Z,5.50
2019-01-16T17:51:10.841Z,5.50
2019-01-16T17:54:00.097Z,5.45
2019-01-16T17:56:49.417Z,5.40
2019-01-16T17:59:47.299Z,5.40
2019-01-16T18:02:49.906Z,5.40
2019-01-16T18:05:46.634Z,5.36
2019-01-16T18:08:48.370Z,5.35
2019-01-16T18:11:45.439Z,5.26
2019-01-16T18:14:33.002Z,5.20
2019-01-16T18:17:33.126Z,5.20
2019-01-16T18:20:29.747Z,5.16
2019-01-16T18:23:11.470Z,5.14
2019-01-16T18:26:14.420Z,5.14
2019-01-16T18:29:08.295Z,5.14
2019-01-16T18:31:58.184Z,5.12
2019-01-16T18:34:51.894Z,5.03
2019-01-16T18:37:36.894Z,4.98
2019-01-16T18:40:23.616Z,4.95
2019-01-16T18:43:13.316Z,4.82
2019-01-16T18:46:03.138Z,4.71
2019-01-16T18:48:57.227Z,4.71
2019-01-16T18:51:46.781Z,4.68
2019-01-16T18:54:36.699Z,4.61
2019-01-16T18:57:42.808Z,4.58
2019-01-16T19:00:29.061Z,4.55
2019-01-16T19:03:19.762Z,4.52
2019-01-16T19:06:11.970Z,4.49
2019-01-16T19:09:01.471Z,4.47
2019-01-16T19:11:46.096Z,4.33
2019-01-16T19:14:35.436Z,4.33
2019-01-16T19:17:17.344Z,4.29
2019-01-16T19:20:15.879Z,4.30
2019-01-16T19:22:59.239Z,4.34
2019-01-16T19:25:52.991Z,4.32
2019-01-16T19:28:40.372Z,4.32
2019-01-16T19:31:31.759Z,4.26
2019-01-16T19:34:22.546Z,4.33
2019-01-16T19:37:11.988Z,4.34
2019-01-16T19:39:54.909Z,4.33
2019-01-16T19:42:49.189Z,4.35
2019-01-16T19:45:40.237Z,4.29
2019-01-16T19:48:30.961Z,4.26
2019-01-16T19:51:21.701Z,4.26
2019-01-16T19:54:15.448Z,4.20
2019-01-16T19:57:24.721Z,4.14
2019-01-16T20:00:07.906Z,4.17
2019-01-16T20:02:57.856Z,4.18
2019-01-16T20:06:08.640Z,4.14
2019-01-16T20:09:17.638Z,4.07
2019-01-16T20:12:22.790Z,4.05
2019-01-16T20:15:11.693Z,4.01
2019-01-16T20:18:01.319Z,3.99
2019-01-16T20:20:56.361Z,3.89
2019-01-16T20:23:46.024Z,3.84
2019-01-16T20:26:36.746Z,3.89
2019-01-16T20:29:24.719Z,3.88
2019-01-16T20:32:14.438Z,3.89
2019-01-16T20:35:09.902Z,3.91
2019-01-16T20:37:56.673Z,3.86
2019-01-16T20:40:47.356Z,3.86
2019-01-16T20:43:54.275Z,3.86
2019-01-16T20:46:43.990Z,3.83
2019-01-16T20:49:32.253Z,3.77
2019-01-16T20:52:22.940Z,3.70
2019-01-16T20:55:12.291Z,3.70
2019-01-16T20:58:10.806Z,3.73
2019-01-16T21:01:19.682Z,3.73
2019-01-16T21:04:08.999Z,3.70
2019-01-16T21:07:03.577Z,3.72
2019-01-16T21:10:09.524Z,3.75
2019-01-16T21:13:00.214Z,3.74
2019-01-16T21:15:57.813Z,3.72
2019-01-16T21:18:43.158Z,3.71
2019-01-16T21:21:32.559Z,3.66
2019-01-16T21:24:26.391Z,3.60
2019-01-16T21:27:32.240Z,3.59
2019-01-16T21:30:29.048Z,3.61
2019-01-16T21:33:16.705Z,3.61
2019-01-16T21:36:07.425Z,3.66
2019-01-16T21:39:13.278Z,3.64
2019-01-16T21:42:04.013Z,3.70
2019-01-16T21:45:03.975Z,3.67
2019-01-16T21:47:54.701Z,3.67
2019-01-16T21:50:46.456Z,3.63
2019-01-16T21:53:30.615Z,3.62
2019-01-16T21:56:36.484Z,3.63
2019-01-16T21:59:29.985Z,3.61
2019-01-16T22:05:34.301Z,3.58
2019-01-16T22:08:25.178Z,3.44
2019-01-16T22:11:08.951Z,3.45
2019-01-16T22:14:02.519Z,3.44
2019-01-16T22:17:09.806Z,3.41
2019-01-16T22:20:11.180Z,3.47
2019-01-16T22:23:06.798Z,3.47
2019-01-16T22:26:10.291Z,3.47
2019-01-16T22:29:12.422Z,3.44
2019-01-16T22:31:53.973Z,3.42
2019-01-16T22:34:43.372Z,3.39
2019-01-16T22:37:24.017Z,3.37
2019-01-16T22:40:10.820Z,3.40
2019-01-16T22:42:58.480Z,3.37
2019-01-16T22:46:12.793Z,3.39
2019-01-16T22:48:55.567Z,3.39
2019-01-16T22:51:43.504Z,3.37
2019-01-16T22:54:32.892Z,3.37
2019-01-16T22:57:21.514Z,3.38
2019-01-16T23:00:07.552Z,3.41
2019-01-16T23:02:51.424Z,3.32
2019-01-16T23:05:46.224Z,3.32
2019-01-16T23:08:34.788Z,3.35
2019-01-16T23:11:15.035Z,3.27
2019-01-16T23:14:05.743Z,3.27
2019-01-16T23:16:53.451Z,3.28
2019-01-16T23:19:34.191Z,3.29
2019-01-16T23:22:18.273Z,3.35
2019-01-16T23:25:18.329Z,3.40
2019-01-16T23:28:02.208Z,3.41
2019-01-16T23:30:52.570Z,3.43
2019-01-16T23:33:43.308Z,3.41
2019-01-16T23:36:36.829Z,3.36
2019-01-16T23:39:34.874Z,3.38
2019-01-16T23:42:37.488Z,3.34
2019-01-16T23:45:23.615Z,3.37
2019-01-16T23:48:20.367Z,3.42
2019-01-16T23:51:20.392Z,3.44
2019-01-16T23:54:23.134Z,3.47
2019-01-16T23:57:23.950Z,3.51
